Terminal Aerodrome Forecast
Issued by NWS

Home | Current Version | Previous Version | Text Only | Print | Product List | Glossary On
Versions: 1 2 3 4 5 6 7 8 9 10 11 12 13 14 15 16 17
000
FTAK31 PAJN 200500
TAFASI
TAF
PASI 200523Z 2006/2106 13007KT P6SM VCSH SCT020 OVC050
     FM200800 10012KT 6SM -RA BR SCT020 OVC035
     FM201400 12018G25KT 4SM RA BR BKN020 OVC030 WS020/15040KT
     FM201800 15012G17KT 4SM -RA BR BKN020 OVC030 WS020/18035KT
     FM202000 21011KT P6SM -SHRA SCT020 OVC030
     FM210100 26007KT P6SM VCSH SCT020 OVC045=

USA.gov is the U.S. government's official web portal to all federal, state and local government web resources and services.